Time;durP1;ratioP1;P1;durP2;ratioP2;P2;SDS_P1;SDS_P2;PMS_P1;PMS_P2;Temp;Humidity;BMP_temperature;BMP_pressure;BME280_temperature;BME280_humidity;BME280_pressure;Samples;Min_cycle;Max_cycle;Signal;HPM_P1;HPM_P2
2023/01/19 00:01:14;;;;;;;;;;;;;;;18.49;42.14;99813.50;5130006;27;19930;-44
2023/01/19 00:03:39;;;;;;;;;;;;;;;18.50;42.21;99823.38;5130366;28;19923;-45
2023/01/19 00:06:05;;;;;;;;;;;;;;;18.50;42.24;99820.63;5130658;28;19927;-45
2023/01/19 00:08:31;;;;;;;;;;;;;;;18.50;42.05;99823.38;5112220;28;19982;-44
2023/01/19 00:10:57;;;;;;;;;;;;;;;18.50;42.25;99823.38;5130444;27;19931;-44
2023/01/19 00:13:22;;;;;;;;;;;;;;;18.49;42.15;99824.53;5130798;28;19927;-44
2023/01/19 00:15:48;;;;;;;;;;;;;;;18.49;42.14;99816.25;5130665;28;19931;-45
2023/01/19 00:18:13;;;;;;;;;;;;;;;18.50;42.15;99819.81;5130454;27;20032;-44
2023/01/19 00:20:39;;;;;;;;;;;;;;;18.49;42.21;99821.75;5130452;27;19927;-44
2023/01/19 00:23:06;;;;;;;;;;;;;;;18.50;42.19;99828.09;5130517;28;19928;-45
2023/01/19 00:25:32;;;;;;;;;;;;;;;18.50;42.24;99825.34;5111623;28;19974;-45
2023/01/19 00:27:57;;;;;;;;;;;;;;;18.49;42.24;99824.53;5111968;28;19931;-44
2023/01/19 00:30:26;;;;;;;;;;;;;;;18.49;42.20;99819.00;5136564;27;20285;-45
2023/01/19 00:32:52;;;;;;;;;;;;;;;18.49;42.21;99813.50;5132602;27;19930;-44
2023/01/19 00:35:18;;;;;;;;;;;;;;;18.49;42.15;99823.69;5151152;27;19934;-45
2023/01/19 00:37:44;;;;;;;;;;;;;;;18.49;42.25;99831.97;5150576;27;20301;-45
2023/01/19 00:40:11;;;;;;;;;;;;;;;18.49;42.12;99835.53;5150796;27;19961;-44
2023/01/19 00:42:39;;;;;;;;;;;;;;;18.49;42.25;99830.03;5150983;27;19923;-45
2023/01/19 00:45:07;;;;;;;;;;;;;;;18.49;42.04;99835.53;5150606;27;19960;-44
2023/01/19 00:47:32;;;;;;;;;;;;;;;18.49;42.22;99838.31;5150874;27;20381;-46
2023/01/19 00:49:58;;;;;;;;;;;;;;;18.48;42.10;99839.44;5150429;27;19938;-44
2023/01/19 00:52:23;;;;;;;;;;;;;;;18.50;42.19;99844.63;5150954;27;19923;-43
2023/01/19 00:54:49;;;;;;;;;;;;;;;18.49;42.29;99843.00;5150600;27;19934;-45
2023/01/19 00:57:15;;;;;;;;;;;;;;;18.49;41.80;99831.97;5150833;27;20328;-44
2023/01/19 00:59:40;;;;;;;;;;;;;;;18.49;42.08;99834.72;5154182;27;19956;-44
2023/01/19 01:02:06;;;;;;;;;;;;;;;18.48;42.21;99831.16;5154264;27;19930;-45
2023/01/19 01:04:32;;;;;;;;;;;;;;;18.49;42.18;99829.22;5154235;27;19930;-44
2023/01/19 01:06:57;;;;;;;;;;;;;;;18.48;42.01;99827.56;5154422;27;20396;-45
2023/01/19 01:09:23;;;;;;;;;;;;;;;18.49;42.09;99830.03;5154182;27;19975;-45
2023/01/19 01:11:48;;;;;;;;;;;;;;;18.48;41.97;99822.88;5153839;27;19976;-48
2023/01/19 01:14:14;;;;;;;;;;;;;;;18.49;42.30;99826.47;5154249;27;19923;-45
2023/01/19 01:16:40;;;;;;;;;;;;;;;18.48;41.95;99828.41;5154141;27;19926;-45
2023/01/19 01:19:06;;;;;;;;;;;;;;;18.48;42.24;99822.88;5154190;27;20389;-46
2023/01/19 01:21:33;;;;;;;;;;;;;;;18.48;42.15;99830.31;5135203;27;19923;-44
2023/01/19 01:23:59;;;;;;;;;;;;;;;18.49;42.18;99829.22;5153837;27;19974;-44
2023/01/19 01:26:24;;;;;;;;;;;;;;;18.48;42.04;99830.31;5154060;27;19971;-45
2023/01/19 01:28:52;;;;;;;;;;;;;;;18.48;42.18;99841.34;5153792;27;19923;-47
2023/01/19 01:31:17;;;;;;;;;;;;;;;18.48;42.24;99835.84;5153668;27;19934;-43
2023/01/19 01:33:43;;;;;;;;;;;;;;;18.49;42.29;99840.25;5153808;27;19931;-44
2023/01/19 01:36:10;;;;;;;;;;;;;;;18.48;42.20;99841.34;5153885;27;19946;-44
2023/01/19 01:38:36;;;;;;;;;;;;;;;18.47;42.22;99840.53;5153533;27;19927;-45
2023/01/19 01:41:01;;;;;;;;;;;;;;;18.48;41.96;99830.31;5153672;27;19923;-44
2023/01/19 01:43:40;;;;;;;;;;;;;;;18.47;42.18;99834.19;5153920;27;19931;-45
2023/01/19 01:46:05;;;;;;;;;;;;;;;18.48;42.06;99831.16;5152446;27;19923;-46
2023/01/19 01:48:32;;;;;;;;;;;;;;;18.48;42.24;99831.16;5165421;27;19928;-44
2023/01/19 01:51:29;;;;;;;;;;;;;;;18.47;42.09;99840.53;5132533;27;20117;-44
2023/01/19 01:53:44;;;;;;;;;;;;;;;18.47;42.01;99836.97;5117155;28;19927;-44
2023/01/19 01:56:11;;;;;;;;;;;;;;;18.47;42.17;99837.78;5132846;28;20439;-44
2023/01/19 01:58:37;;;;;;;;;;;;;;;18.47;42.15;99846.03;5132685;27;19962;-45
2023/01/19 02:03:48;;;;;;;;;;;;;;;18.47;42.12;99850.75;5117389;28;20374;-44
2023/01/19 02:06:14;;;;;;;;;;;;;;;18.47;41.88;99845.22;5132910;28;19924;-45
2023/01/19 02:14:12;;;;;;;;;;;;;;;18.46;42.12;99840.84;5145730;27;20009;-44
2023/01/19 02:16:38;;;;;;;;;;;;;;;18.47;41.95;99843.28;5132385;28;19927;-44
2023/01/19 02:19:04;;;;;;;;;;;;;;;18.47;42.22;99836.97;5132296;27;19928;-44
2023/01/19 02:21:50;;;;;;;;;;;;;;;18.47;42.12;99839.72;5132042;27;20710;-45
2023/01/19 02:24:16;;;;;;;;;;;;;;;18.47;42.14;99839.72;5116804;28;20441;-44
2023/01/19 02:26:43;;;;;;;;;;;;;;;18.47;42.12;99834.19;5132478;28;19924;-44
2023/01/19 02:29:10;;;;;;;;;;;;;;;18.47;42.17;99831.44;5113600;28;19970;-44
2023/01/19 02:31:36;;;;;;;;;;;;;;;18.46;42.09;99836.13;5113676;28;19931;-44
2023/01/19 02:34:02;;;;;;;;;;;;;;;18.47;42.15;99839.72;5113803;28;20282;-44
2023/01/19 02:36:37;;;;;;;;;;;;;;;18.46;42.10;99840.84;5113723;28;19927;-44
2023/01/19 02:39:03;;;;;;;;;;;;;;;18.46;42.19;99836.13;5113708;28;19923;-46
2023/01/19 02:41:29;;;;;;;;;;;;;;;18.46;42.07;99843.59;5132221;27;19924;-47
2023/01/19 02:43:56;;;;;;;;;;;;;;;18.46;41.89;99840.84;5132199;28;20427;-44
2023/01/19 02:46:21;;;;;;;;;;;;;;;18.46;41.97;99838.91;5152015;27;19966;-46
2023/01/19 02:48:47;;;;;;;;;;;;;;;18.46;42.11;99836.13;5152820;27;19946;-44
2023/01/19 02:51:13;;;;;;;;;;;;;;;18.47;41.95;99836.97;5152557;27;19923;-45
2023/01/19 02:53:48;;;;;;;;;;;;;;;18.46;42.07;99825.13;5152431;27;19931;-45
2023/01/19 02:56:35;;;;;;;;;;;;;;;18.45;42.07;99829.00;5133814;27;19973;-45
2023/01/19 02:59:03;;;;;;;;;;;;;;;18.45;42.16;99823.47;5136885;27;19966;-44
2023/01/19 03:01:36;;;;;;;;;;;;;;;18.45;42.09;99826.25;5152067;27;19930;-44
2023/01/19 03:04:06;;;;;;;;;;;;;;;18.45;42.03;99826.25;5152306;27;19929;-44
2023/01/19 03:06:35;;;;;;;;;;;;;;;18.46;41.94;99833.38;5152647;27;19923;-44
2023/01/19 03:09:02;;;;;;;;;;;;;;;18.45;42.04;99826.25;5133701;27;19975;-44
2023/01/19 03:11:28;;;;;;;;;;;;;;;18.45;42.09;99831.75;5133742;27;20019;-45
2023/01/19 03:13:56;;;;;;;;;;;;;;;18.45;42.15;99823.47;5133774;27;20366;-45
2023/01/19 03:16:23;;;;;;;;;;;;;;;18.45;42.07;99834.50;5152299;27;19923;-45
2023/01/19 03:18:52;;;;;;;;;;;;;;;18.46;41.90;99830.63;5133452;27;19927;-46
2023/01/19 03:21:18;;;;;;;;;;;;;;;18.45;42.09;99834.50;5151353;27;19966;-44
2023/01/19 03:23:44;;;;;;;;;;;;;;;18.45;41.89;99826.25;5133139;27;19927;-44
2023/01/19 03:26:10;;;;;;;;;;;;;;;18.46;42.11;99838.09;5151867;27;19923;-44
2023/01/19 03:28:36;;;;;;;;;;;;;;;18.46;42.04;99824.31;5133022;27;19934;-46
2023/01/19 03:31:03;;;;;;;;;;;;;;;18.46;42.07;99835.31;5151441;27;19923;-44
2023/01/19 03:33:31;;;;;;;;;;;;;;;18.45;41.92;99834.50;5151746;27;20075;-44
2023/01/19 03:35:57;;;;;;;;;;;;;;;18.45;42.09;99837.28;5133419;27;19927;-44
2023/01/19 03:38:24;;;;;;;;;;;;;;;18.46;41.97;99838.09;5151789;27;19923;-46
2023/01/19 03:40:51;;;;;;;;;;;;;;;18.46;42.03;99846.34;5151423;27;20642;-47
2023/01/19 03:43:16;;;;;;;;;;;;;;;18.46;41.93;99844.41;5151977;27;19927;-44
2023/01/19 03:45:42;;;;;;;;;;;;;;;18.46;41.99;99846.34;5166170;27;20286;-44
2023/01/19 03:48:08;;;;;;;;;;;;;;;18.45;41.83;99844.72;5170835;27;20306;-45
2023/01/19 03:50:33;;;;;;;;;;;;;;;18.44;42.02;99854.94;5130987;27;19927;-47
2023/01/19 03:53:00;;;;;;;;;;;;;;;18.46;41.99;99860.13;5131091;28;19959;-45
2023/01/19 03:55:26;;;;;;;;;;;;;;;18.45;42.04;99853.81;5112337;28;20371;-44
2023/01/19 03:57:52;;;;;;;;;;;;;;;18.45;41.80;99855.75;5130714;28;19923;-45
2023/01/19 04:00:17;;;;;;;;;;;;;;;18.44;41.82;99849.44;5130034;27;20326;-44
2023/01/19 04:02:43;;;;;;;;;;;;;;;18.44;41.83;99849.44;5130821;28;19923;-44
2023/01/19 04:05:09;;;;;;;;;;;;;;;18.45;42.04;99855.75;5130887;28;19930;-44
2023/01/19 04:07:34;;;;;;;;;;;;;;;18.45;42.04;99841.97;5130952;28;19957;-44
2023/01/19 04:10:00;;;;;;;;;;;;;;;18.44;41.89;99845.84;5130024;27;19927;-45
2023/01/19 04:12:25;;;;;;;;;;;;;;;18.44;41.94;99846.66;5130770;28;19931;-44
2023/01/19 04:14:51;;;;;;;;;;;;;;;18.46;42.00;99851.88;5130468;28;19924;-44
2023/01/19 04:17:16;;;;;;;;;;;;;;;18.45;41.99;99847.47;5130542;28;19935;-44
2023/01/19 04:19:42;;;;;;;;;;;;;;;18.44;42.11;99851.38;5130651;27;19980;-44
2023/01/19 04:22:08;;;;;;;;;;;;;;;18.45;42.04;99858.50;5130541;27;19935;-44
2023/01/19 04:24:33;;;;;;;;;;;;;;;18.44;41.72;99843.91;5130171;28;19930;-44
2023/01/19 04:26:59;;;;;;;;;;;;;;;18.44;41.79;99848.59;5130446;28;20008;-45
2023/01/19 04:29:25;;;;;;;;;;;;;;;18.43;42.08;99850.53;5130067;27;19934;-45
2023/01/19 04:31:50;;;;;;;;;;;;;;;18.45;42.00;99850.25;5129758;27;19932;-44
2023/01/19 04:34:16;;;;;;;;;;;;;;;18.45;42.04;99853.00;5130317;28;19924;-44
2023/01/19 04:36:44;;;;;;;;;;;;;;;18.44;41.99;99854.94;5130160;28;19924;-45
2023/01/19 04:39:10;;;;;;;;;;;;;;;18.44;41.98;99849.44;5130377;27;19963;-43
2023/01/19 04:41:36;;;;;;;;;;;;;;;18.44;42.03;99854.13;5130340;27;19951;-44
2023/01/19 04:44:01;;;;;;;;;;;;;;;18.44;41.82;99848.59;5130400;27;19923;-44
2023/01/19 04:46:27;;;;;;;;;;;;;;;18.43;42.00;99850.53;5132477;27;19931;-45
2023/01/19 04:48:53;;;;;;;;;;;;;;;18.43;41.94;99850.53;5150858;27;19973;-43
2023/01/19 04:51:18;;;;;;;;;;;;;;;18.44;41.95;99854.13;5150936;27;20328;-45
2023/01/19 04:53:44;;;;;;;;;;;;;;;18.43;41.91;99842.25;5150446;27;19965;-44
2023/01/19 04:56:09;;;;;;;;;;;;;;;18.44;41.89;99865.16;5150812;27;20279;-44
2023/01/19 04:58:35;;;;;;;;;;;;;;;18.44;42.13;99856.88;5150594;27;19938;-45
2023/01/19 05:01:01;;;;;;;;;;;;;;;18.43;41.82;99858.78;5150266;27;20289;-44
2023/01/19 05:03:26;;;;;;;;;;;;;;;18.43;42.00;99861.53;5150561;27;19931;-44
2023/01/19 05:05:52;;;;;;;;;;;;;;;18.44;41.93;99867.91;5150385;27;19923;-45
2023/01/19 05:08:17;;;;;;;;;;;;;;;18.43;41.93;99867.06;5150522;27;19923;-45
2023/01/19 05:10:43;;;;;;;;;;;;;;;18.43;41.97;99869.00;5150547;27;19923;-46
2023/01/19 05:13:08;;;;;;;;;;;;;;;18.43;42.08;99869.81;5150637;27;19938;-46
2023/01/19 05:15:34;;;;;;;;;;;;;;;18.44;41.96;99867.91;5149807;27;19934;-44
2023/01/19 05:18:00;;;;;;;;;;;;;;;18.43;42.05;99858.78;5150534;27;19991;-45
2023/01/19 05:20:25;;;;;;;;;;;;;;;18.43;41.86;99872.56;5131769;27;19931;-44
2023/01/19 05:22:51;;;;;;;;;;;;;;;18.43;41.79;99867.06;5150667;27;19964;-45
2023/01/19 05:25:17;;;;;;;;;;;;;;;18.43;42.05;99864.31;5131602;27;19923;-45
2023/01/19 05:27:43;;;;;;;;;;;;;;;18.43;42.07;99869.00;5150087;27;19963;-45
2023/01/19 05:30:09;;;;;;;;;;;;;;;18.43;41.79;99866.25;5148156;27;20401;-46
2023/01/19 05:32:35;;;;;;;;;;;;;;;18.44;41.92;99865.97;5148994;27;19931;-44
2023/01/19 05:35:00;;;;;;;;;;;;;;;18.42;41.77;99873.69;5150238;27;19939;-45
2023/01/19 05:37:26;;;;;;;;;;;;;;;18.42;41.82;99870.94;5149752;27;19958;-47
2023/01/19 05:39:52;;;;;;;;;;;;;;;18.43;41.87;99866.25;5131334;27;19938;-44
2023/01/19 05:42:17;;;;;;;;;;;;;;;18.43;41.77;99871.75;5131765;27;20420;-47
2023/01/19 05:44:43;;;;;;;;;;;;;;;18.43;41.82;99872.56;5152012;27;19934;-44
2023/01/19 05:47:09;;;;;;;;;;;;;;;18.43;41.60;99878.09;5153066;27;19931;-44
2023/01/19 05:49:34;;;;;;;;;;;;;;;18.44;41.99;99881.69;5153574;27;19927;-46
2023/01/19 05:52:00;;;;;;;;;;;;;;;18.43;41.82;99878.09;5153538;27;20021;-43
2023/01/19 05:54:25;;;;;;;;;;;;;;;18.43;41.99;99882.78;5153462;27;19971;-44
2023/01/19 05:56:51;;;;;;;;;;;;;;;18.42;41.79;99887.50;5153529;27;20316;-44
2023/01/19 05:59:22;;;;;;;;;;;;;;;18.43;41.92;99888.31;5152967;27;19923;-44
2023/01/19 06:01:50;;;;;;;;;;;;;;;18.43;42.00;99885.53;5153217;27;19923;-44
2023/01/19 06:04:15;;;;;;;;;;;;;;;18.43;41.99;99891.06;5148958;27;19929;-44
2023/01/19 06:06:41;;;;;;;;;;;;;;;18.43;41.87;99888.31;5153239;27;19923;-44
2023/01/19 06:09:06;;;;;;;;;;;;;;;18.42;42.03;99895.75;5142764;27;19929;-44
2023/01/19 06:11:32;;;;;;;;;;;;;;;18.42;42.00;99900.44;5149778;27;19930;-44
2023/01/19 06:13:57;;;;;;;;;;;;;;;18.43;42.00;99896.56;5135467;27;20248;-44
2023/01/19 06:16:23;;;;;;;;;;;;;;;18.42;41.93;99905.97;5139795;27;19928;-45
2023/01/19 06:18:49;;;;;;;;;;;;;;;18.42;41.78;99909.53;5150365;27;19931;-44
2023/01/19 06:21:14;;;;;;;;;;;;;;;18.42;41.74;99904.03;5145769;27;20444;-45
2023/01/19 06:23:40;;;;;;;;;;;;;;;18.35;41.45;99897.25;5149259;27;20023;-45
2023/01/19 06:26:05;;;;;;;;;;;;;;;18.39;41.78;99893.59;5148570;27;20374;-44
2023/01/19 06:28:31;;;;;;;;;;;;;;;18.42;42.00;99892.19;5152411;27;19975;-44
2023/01/19 06:30:56;;;;;;;;;;;;;;;18.42;41.96;99894.94;5147327;27;20371;-44
2023/01/19 06:33:22;;;;;;;;;;;;;;;18.44;41.90;99895.47;5148847;27;19927;-44
2023/01/19 06:35:48;;;;;;;;;;;;;;;18.43;41.83;99891.88;5132996;27;19923;-44
2023/01/19 06:38:15;;;;;;;;;;;;;;;18.45;41.80;99910.88;5115614;27;19957;-46
2023/01/19 06:40:41;;;;;;;;;;;;;;;18.45;41.89;99914.47;5136054;27;19923;-45
2023/01/19 06:43:07;;;;;;;;;;;;;;;18.45;42.07;99919.16;5141525;27;19927;-43
2023/01/19 06:45:32;;;;;;;;;;;;;;;18.46;41.80;99923.56;5144933;27;20390;-44
2023/01/19 06:47:58;;;;;;;;;;;;;;;18.46;42.06;99932.63;5150173;27;19938;-44
2023/01/19 06:50:23;;;;;;;;;;;;;;;18.47;42.02;99931.50;5141899;27;20022;-44
2023/01/19 06:52:49;;;;;;;;;;;;;;;18.47;41.80;99934.25;5142215;27;19935;-44
2023/01/19 06:55:15;;;;;;;;;;;;;;;18.47;42.02;99937.03;5143172;27;19926;-44
2023/01/19 06:57:41;;;;;;;;;;;;;;;18.48;41.83;99944.19;5145882;27;20660;-47
2023/01/19 07:00:07;;;;;;;;;;;;;;;18.49;41.83;99945.81;5140066;27;20591;-45
2023/01/19 07:02:33;;;;;;;;;;;;;;;18.50;41.95;99950.22;5131540;27;19929;-44
2023/01/19 07:04:59;;;;;;;;;;;;;;;18.50;41.83;99955.72;5131018;27;19954;-45
2023/01/19 07:07:25;;;;;;;;;;;;;;;18.51;41.78;99948.28;5136436;27;20279;-44
2023/01/19 07:09:50;;;;;;;;;;;;;;;18.51;41.86;99962.06;5137484;27;20496;-44
2023/01/19 07:12:19;;;;;;;;;;;;;;;18.51;42.07;99964.81;5144065;27;19972;-44
2023/01/19 07:14:45;;;;;;;;;;;;;;;18.51;41.90;99962.88;5118389;27;19927;-45
2023/01/19 07:17:11;;;;;;;;;;;;;;;18.52;41.85;99960.94;5138261;27;19927;-44
2023/01/19 07:19:36;;;;;;;;;;;;;;;18.53;41.92;99976.38;5137592;27;19999;-44
2023/01/19 07:22:02;;;;;;;;;;;;;;;18.53;41.88;99968.94;5143403;27;19931;-46
2023/01/19 07:24:29;;;;;;;;;;;;;;;18.54;41.86;99983.53;5141203;27;20138;-45
2023/01/19 07:26:55;;;;;;;;;;;;;;;18.54;41.66;99983.53;5130963;27;19966;-53
2023/01/19 07:29:20;;;;;;;;;;;;;;;18.60;42.30;99981.50;5131207;27;20062;-48
2023/01/19 07:31:47;;;;;;;;;;;;;;;18.58;42.06;99990.09;5140582;27;19972;-47
2023/01/19 07:34:13;;;;;;;;;;;;;;;18.56;42.25;99984.03;5146839;27;19927;-47
2023/01/19 07:36:39;;;;;;;;;;;;;;;18.56;41.96;99989.53;5144766;27;19934;-47
2023/01/19 07:39:04;;;;;;;;;;;;;;;18.55;42.03;99994.25;5134887;27;19996;-48
2023/01/19 07:41:30;;;;;;;;;;;;;;;18.55;42.08;99994.25;5131433;27;19934;-47
2023/01/19 07:43:56;;;;;;;;;;;;;;;18.54;42.18;99992.63;5136068;27;20394;-47
2023/01/19 07:46:21;;;;;;;;;;;;;;;18.56;42.21;99990.38;5133522;27;19923;-48
2023/01/19 07:48:47;;;;;;;;;;;;;;;18.56;42.09;99995.06;5132875;27;19934;-46
2023/01/19 07:51:17;;;;;;;;;;;;;;;18.56;42.15;100000.56;5134020;27;20299;-47
2023/01/19 07:53:43;;;;;;;;;;;;;;;18.56;41.86;100004.16;5142592;27;20459;-46
2023/01/19 07:56:09;;;;;;;;;;;;;;;18.57;42.16;100010.50;5132573;27;20638;-47
2023/01/19 07:58:34;;;;;;;;;;;;;;;18.59;41.97;100019.28;5124833;27;20393;-47
2023/01/19 08:01:04;;;;;;;;;;;;;;;18.60;41.98;100029.19;5125808;27;19930;-46
2023/01/19 08:03:30;;;;;;;;;;;;;;;18.61;42.21;100036.38;5122085;27;19927;-50
2023/01/19 08:05:55;;;;;;;;;;;;;;;18.60;41.98;100040.22;5122297;27;20552;-47
2023/01/19 08:08:21;;;;;;;;;;;;;;;18.60;42.10;100045.75;5130079;27;19923;-47
2023/01/19 08:10:48;;;;;;;;;;;;;;;18.60;42.22;100042.16;5124272;27;20000;-49
2023/01/19 08:13:14;;;;;;;;;;;;;;;18.59;41.98;100049.63;5115835;27;20350;-47
2023/01/19 08:15:39;;;;;;;;;;;;;;;18.60;42.21;100053.19;5132736;27;19931;-51
2023/01/19 08:18:07;;;;;;;;;;;;;;;18.60;42.00;100059.53;5132513;27;19931;-47
2023/01/19 08:20:32;;;;;;;;;;;;;;;18.62;41.90;100056.50;5139541;27;20008;-47
2023/01/19 08:22:59;;;;;;;;;;;;;;;18.62;42.17;100048.22;5136934;27;20363;-47
2023/01/19 08:25:31;;;;;;;;;;;;;;;18.61;41.91;100052.91;5128073;27;19988;-48
2023/01/19 08:27:56;;;;;;;;;;;;;;;18.62;41.91;100050.97;5111357;27;19982;-46
2023/01/19 08:30:24;;;;;;;;;;;;;;;18.62;41.99;100065.59;5134724;27;19987;-46
2023/01/19 08:32:50;;;;;;;;;;;;;;;18.63;42.12;100067.22;5132320;27;19932;-47
2023/01/19 08:35:15;;;;;;;;;;;;;;;18.64;42.20;100068.03;5136301;27;19927;-47
2023/01/19 08:37:41;;;;;;;;;;;;;;;18.63;42.08;100069.16;5133480;27;19927;-47
2023/01/19 08:40:07;;;;;;;;;;;;;;;18.64;41.97;100077.13;5133724;27;19979;-47
2023/01/19 08:42:32;;;;;;;;;;;;;;;18.64;41.94;100082.63;5136243;27;19961;-46
2023/01/19 08:44:58;;;;;;;;;;;;;;;18.62;42.14;100087.66;5138656;27;20008;-46
2023/01/19 08:47:24;;;;;;;;;;;;;;;18.66;42.84;100079.59;5139894;27;19923;-44
2023/01/19 08:49:49;;;;;;;;;;;;;;;18.67;42.35;100084.81;5139225;27;20297;-44
2023/01/19 08:52:15;;;;;;;;;;;;;;;18.70;41.87;100092.53;5142364;27;19927;-54
2023/01/19 08:54:40;;;;;;;;;;;;;;;18.73;42.37;100094.66;5141486;27;19927;-45
2023/01/19 08:57:06;;;;;;;;;;;;;;;18.71;42.47;100094.16;5136061;27;19934;-45
2023/01/19 08:59:32;;;;;;;;;;;;;;;18.70;42.32;100094.47;5132670;27;20695;-44
2023/01/19 09:01:57;;;;;;;;;;;;;;;18.69;42.64;100098.28;5133527;27;19946;-45
2023/01/19 09:04:23;;;;;;;;;;;;;;;18.69;42.69;100114.84;5126635;27;19934;-45
2023/01/19 09:06:49;;;;;;;;;;;;;;;18.68;42.43;100116.78;5131157;27;19931;-45
2023/01/19 09:09:14;;;;;;;;;;;;;;;18.68;42.72;100113.22;5129163;27;19977;-45
2023/01/19 09:11:41;;;;;;;;;;;;;;;18.66;42.69;100113.50;5131861;27;21334;-46
2023/01/19 09:14:07;;;;;;;;;;;;;;;18.67;42.39;100117.91;5134871;27;19978;-46
2023/01/19 09:16:33;;;;;;;;;;;;;;;18.73;42.55;100116.72;5141118;27;20027;-55
2023/01/19 09:18:58;;;;;;;;;;;;;;;18.60;41.79;100116.63;5138171;27;19931;-55
2023/01/19 09:21:24;;;;;;;;;;;;;;;18.71;42.66;100120.94;5142133;27;20276;-47
2023/01/19 09:23:50;;;;;;;;;;;;;;;18.73;43.00;100127.75;5136462;27;19927;-53
2023/01/19 09:26:16;;;;;;;;;;;;;;;18.77;42.99;100122.47;5120989;27;19927;-44
2023/01/19 09:28:41;;;;;;;;;;;;;;;18.77;43.11;100128.00;5139658;27;20437;-47
2023/01/19 09:31:07;;;;;;;;;;;;;;;18.76;43.46;100123.59;5136789;27;19976;-46
2023/01/19 09:33:33;;;;;;;;;;;;;;;18.76;43.21;100134.63;5135522;27;20009;-43
2023/01/19 09:35:58;;;;;;;;;;;;;;;18.76;43.40;100134.63;5135683;27;20378;-45
2023/01/19 09:38:25;;;;;;;;;;;;;;;18.75;43.42;100142.09;5130584;27;19938;-44
2023/01/19 09:40:52;;;;;;;;;;;;;;;18.75;43.60;100141.28;5138015;27;19938;-45
2023/01/19 09:43:21;;;;;;;;;;;;;;;18.22;40.24;100150.47;5122708;27;20279;-54
2023/01/19 09:45:48;;;;;;;;;;;;;;;18.41;41.26;100155.19;5148755;27;19962;-44
2023/01/19 09:48:19;;;;;;;;;;;;;;;18.56;42.08;100149.47;5135658;27;20286;-44
2023/01/19 09:50:47;;;;;;;;;;;;;;;18.64;40.51;100153.53;5136546;27;19930;-44
2023/01/19 09:53:14;;;;;;;;;;;;;;;18.66;41.34;100149.38;5137473;27;20014;-46
2023/01/19 09:55:40;;;;;;;;;;;;;;;18.70;40.86;100166.19;5140293;27;19927;-44
2023/01/19 09:58:12;;;;;;;;;;;;;;;18.70;39.20;100172.50;5118752;27;19960;-43
2023/01/19 10:00:37;;;;;;;;;;;;;;;18.71;40.89;100173.34;5120113;27;20054;-44
2023/01/19 10:03:19;;;;;;;;;;;;;;;18.72;41.61;100170.25;5138355;27;20010;-44
2023/01/19 10:05:48;;;;;;;;;;;;;;;18.72;42.38;100173.03;5140900;27;19927;-45
2023/01/19 10:08:17;;;;;;;;;;;;;;;18.74;42.34;100175.50;5141237;27;19959;-45
2023/01/19 10:10:58;;;;;;;;;;;;;;;18.73;42.40;100177.41;5120109;27;19930;-45
2023/01/19 10:13:43;;;;;;;;;;;;;;;18.73;42.26;100185.69;5117535;27;19924;-42
2023/01/19 10:16:30;;;;;;;;;;;;;;;18.74;42.41;100190.13;5121955;27;20346;-45
2023/01/19 10:18:57;;;;;;;;;;;;;;;18.75;42.31;100194.50;5119840;27;19928;-44
2023/01/19 10:21:25;;;;;;;;;;;;;;;18.74;42.07;100192.88;5137702;27;19924;-44
2023/01/19 10:23:53;;;;;;;;;;;;;;;18.74;40.64;100190.13;5116654;27;19926;-44
2023/01/19 10:26:22;;;;;;;;;;;;;;;18.74;40.44;100192.88;5118703;27;19931;-44
2023/01/19 10:28:48;;;;;;;;;;;;;;;18.75;40.60;100193.69;5118254;27;19938;-45
2023/01/19 10:31:14;;;;;;;;;;;;;;;18.74;40.55;100198.38;5141401;27;19923;-44
2023/01/19 10:33:40;;;;;;;;;;;;;;;18.75;41.10;100208.28;5137716;27;19935;-45
2023/01/19 10:36:15;;;;;;;;;;;;;;;18.73;40.69;100205.00;5136289;27;19980;-44
2023/01/19 10:38:40;;;;;;;;;;;;;;;18.73;40.19;100206.94;5125319;27;19986;-49
2023/01/19 10:41:09;;;;;;;;;;;;;;;18.73;40.27;100213.28;5120443;27;19927;-44
2023/01/19 10:43:36;;;;;;;;;;;;;;;18.74;40.53;100212.19;5125539;27;19985;-44
2023/01/19 10:46:05;;;;;;;;;;;;;;;18.74;40.47;100214.13;5135953;27;19923;-44
2023/01/19 10:48:38;;;;;;;;;;;;;;;18.70;40.78;100205.59;5117580;27;19965;-43
2023/01/19 10:51:04;;;;;;;;;;;;;;;18.75;41.93;100200.03;5117555;27;20120;-44
2023/01/19 10:53:30;;;;;;;;;;;;;;;18.75;41.87;100197.25;5139366;27;19931;-46
2023/01/19 10:56:15;;;;;;;;;;;;;;;18.75;41.04;100205.53;5136723;27;19939;-44
2023/01/19 10:58:41;;;;;;;;;;;;;;;18.75;40.59;100200.03;5125170;27;19978;-44
2023/01/19 11:01:12;;;;;;;;;;;;;;;18.76;41.17;100195.31;5126515;27;19954;-44
2023/01/19 11:03:37;;;;;;;;;;;;;;;18.55;39.01;100201.06;5127050;27;21257;-45
2023/01/19 11:06:23;;;;;;;;;;;;;;;18.58;39.67;100196.09;5128152;27;20026;-44
2023/01/19 11:08:50;;;;;;;;;;;;;;;18.67;41.26;100199.81;5110186;27;20697;-45
2023/01/19 11:11:16;;;;;;;;;;;;;;;18.70;41.28;100199.28;5126256;27;19962;-46
2023/01/19 11:13:42;;;;;;;;;;;;;;;18.71;41.39;100201.72;5133899;27;19923;-48
2023/01/19 11:16:18;;;;;;;;;;;;;;;18.73;40.50;100202.25;5127011;27;19927;-45
2023/01/19 11:18:45;;;;;;;;;;;;;;;18.75;41.11;100204.72;5125523;27;19930;-44
2023/01/19 11:21:12;;;;;;;;;;;;;;;18.74;40.78;100209.41;5133736;27;20031;-45
2023/01/19 11:23:41;;;;;;;;;;;;;;;18.75;41.51;100207.47;5112018;27;20430;-44
2023/01/19 11:26:07;;;;;;;;;;;;;;;18.75;40.78;100210.25;5134871;27;19923;-46
2023/01/19 11:28:35;;;;;;;;;;;;;;;18.74;40.75;100203.09;5115393;27;20039;-46
2023/01/19 11:31:17;;;;;;;;;;;;;;;18.75;40.83;100200.03;5130141;27;20295;-45
2023/01/19 11:36:22;;;;;;;;;;;;;;;18.75;41.08;100211.06;5148763;27;19938;-43
2023/01/19 11:38:49;;;;;;;;;;;;;;;18.75;40.81;100197.25;5113353;27;19950;-44
2023/01/19 11:41:17;;;;;;;;;;;;;;;18.76;40.55;100206.34;5140789;27;19995;-45
2023/01/19 11:43:43;;;;;;;;;;;;;;;18.74;40.32;100206.66;5129120;27;20050;-45
2023/01/19 11:46:14;;;;;;;;;;;;;;;18.74;41.10;100209.41;5142038;27;20920;-45
2023/01/19 11:48:42;;;;;;;;;;;;;;;18.75;41.28;100201.97;5146317;27;20393;-48
2023/01/19 11:51:10;;;;;;;;;;;;;;;18.75;40.21;100213.00;5135276;27;19930;-43
2023/01/19 11:53:36;;;;;;;;;;;;;;;18.75;40.46;100213.81;5157872;27;20432;-43
2023/01/19 11:56:04;;;;;;;;;;;;;;;18.75;40.58;100213.00;5133894;27;19935;-44
2023/01/19 11:58:31;;;;;;;;;;;;;;;18.75;41.28;100210.25;5125862;27;19969;-46
2023/01/19 12:00:59;;;;;;;;;;;;;;;18.76;40.49;100201.66;5125953;27;19966;-51
2023/01/19 12:03:29;;;;;;;;;;;;;;;18.75;40.58;100204.72;5113595;27;19934;-44
2023/01/19 12:05:57;;;;;;;;;;;;;;;18.75;40.95;100202.78;5134629;27;19984;-45
2023/01/19 12:08:28;;;;;;;;;;;;;;;18.75;40.90;100205.53;5121449;27;19954;-48
2023/01/19 12:10:54;;;;;;;;;;;;;;;18.76;41.02;100204.41;5128202;27;19970;-44
2023/01/19 12:13:20;;;;;;;;;;;;;;;18.75;40.89;100200.03;5134947;27;19969;-47
2023/01/19 12:15:46;;;;;;;;;;;;;;;18.75;40.90;100205.53;5135001;27;19961;-46
2023/01/19 12:18:17;;;;;;;;;;;;;;;18.76;41.35;100206.34;5137901;27;20012;-44
2023/01/19 12:20:43;;;;;;;;;;;;;;;18.76;41.61;100203.59;5131112;27;19927;-48
2023/01/19 12:26:04;;;;;;;;;;;;;;;18.75;40.37;100202.78;5177238;27;20395;-49
2023/01/19 12:28:30;;;;;;;;;;;;;;;18.75;40.69;100199.22;5153213;27;19923;-45
2023/01/19 12:30:56;;;;;;;;;;;;;;;18.75;41.41;100211.06;5146823;27;20383;-43
2023/01/19 12:33:33;;;;;;;;;;;;;;;18.74;41.02;100209.41;5138633;27;20427;-45
2023/01/19 12:36:02;;;;;;;;;;;;;;;18.74;41.30;100211.38;5129764;27;19932;-46
2023/01/19 12:38:48;;;;;;;;;;;;;;;18.75;41.65;100210.25;5149125;27;19932;-44
2023/01/19 12:41:33;;;;;;;;;;;;;;;18.74;41.38;100211.38;5145813;27;19959;-51
2023/01/19 12:44:15;;;;;;;;;;;;;;;18.73;41.59;100210.50;5136376;27;19954;-45
2023/01/19 12:46:41;;;;;;;;;;;;;;;18.74;41.60;100209.41;5160611;27;19927;-45
2023/01/19 12:49:26;;;;;;;;;;;;;;;18.74;41.50;100208.59;5157703;27;19937;-43
2023/01/19 12:51:53;;;;;;;;;;;;;;;18.74;41.62;100209.41;5160728;27;20007;-44
2023/01/19 12:54:28;;;;;;;;;;;;;;;18.73;41.44;100210.50;5154610;27;19924;-44
2023/01/19 12:56:56;;;;;;;;;;;;;;;18.74;41.63;100211.38;5133289;27;20020;-43